sensor_id;sensor_type;location;lat;lon;timestamp;P1;durP1;ratioP1;P2;durP2;ratioP2
78887;SDS011;68276;49.326;8.690;2024-02-26T00:01:58;4.27;;;1.20;;
78887;SDS011;68276;49.326;8.690;2024-02-26T00:04:23;4.07;;;1.33;;
78887;SDS011;68276;49.326;8.690;2024-02-26T00:06:49;2.55;;;0.90;;
78887;SDS011;68276;49.326;8.690;2024-02-26T00:09:16;3.85;;;0.98;;
78887;SDS011;68276;49.326;8.690;2024-02-26T00:11:41;3.13;;;1.00;;
78887;SDS011;68276;49.326;8.690;2024-02-26T00:14:07;3.58;;;1.08;;
78887;SDS011;68276;49.326;8.690;2024-02-26T00:16:32;2.60;;;0.90;;
78887;SDS011;68276;49.326;8.690;2024-02-26T00:18:58;2.92;;;0.90;;
78887;SDS011;68276;49.326;8.690;2024-02-26T00:21:23;2.10;;;0.82;;
78887;SDS011;68276;49.326;8.690;2024-02-26T00:23:49;2.22;;;1.00;;
78887;SDS011;68276;49.326;8.690;2024-02-26T00:26:17;2.83;;;1.00;;
78887;SDS011;68276;49.326;8.690;2024-02-26T00:28:43;5.63;;;0.90;;
78887;SDS011;68276;49.326;8.690;2024-02-26T00:31:08;4.05;;;1.10;;
78887;SDS011;68276;49.326;8.690;2024-02-26T00:33:34;5.53;;;1.00;;
78887;SDS011;68276;49.326;8.690;2024-02-26T00:35:59;3.27;;;1.00;;
78887;SDS011;68276;49.326;8.690;2024-02-26T00:38:25;2.47;;;1.00;;
78887;SDS011;68276;49.326;8.690;2024-02-26T00:40:50;3.33;;;1.00;;
78887;SDS011;68276;49.326;8.690;2024-02-26T00:43:15;4.30;;;1.30;;
78887;SDS011;68276;49.326;8.690;2024-02-26T00:45:41;4.60;;;0.93;;
78887;SDS011;68276;49.326;8.690;2024-02-26T00:48:06;3.53;;;1.10;;
78887;SDS011;68276;49.326;8.690;2024-02-26T00:50:32;3.08;;;1.10;;
78887;SDS011;68276;49.326;8.690;2024-02-26T00:52:59;3.47;;;1.02;;
78887;SDS011;68276;49.326;8.690;2024-02-26T00:55:24;3.67;;;1.20;;
78887;SDS011;68276;49.326;8.690;2024-02-26T00:57:50;3.25;;;0.90;;
78887;SDS011;68276;49.326;8.690;2024-02-26T01:00:15;3.30;;;1.07;;
78887;SDS011;68276;49.326;8.690;2024-02-26T01:02:41;3.95;;;1.10;;
78887;SDS011;68276;49.326;8.690;2024-02-26T01:05:07;2.78;;;0.95;;
78887;SDS011;68276;49.326;8.690;2024-02-26T01:07:34;1.88;;;0.90;;
78887;SDS011;68276;49.326;8.690;2024-02-26T01:12:30;2.63;;;0.80;;
78887;SDS011;68276;49.326;8.690;2024-02-26T01:14:56;2.53;;;0.90;;
78887;SDS011;68276;49.326;8.690;2024-02-26T01:17:21;4.87;;;1.20;;
78887;SDS011;68276;49.326;8.690;2024-02-26T01:19:47;3.00;;;0.90;;
78887;SDS011;68276;49.326;8.690;2024-02-26T01:22:12;4.82;;;0.90;;
78887;SDS011;68276;49.326;8.690;2024-02-26T01:24:38;2.95;;;1.00;;
78887;SDS011;68276;49.326;8.690;2024-02-26T01:27:03;2.67;;;0.98;;
78887;SDS011;68276;49.326;8.690;2024-02-26T01:29:29;3.15;;;1.08;;
78887;SDS011;68276;49.326;8.690;2024-02-26T01:31:54;3.53;;;1.02;;
78887;SDS011;68276;49.326;8.690;2024-02-26T01:34:20;3.35;;;0.98;;
78887;SDS011;68276;49.326;8.690;2024-02-26T01:36:45;2.40;;;1.00;;
78887;SDS011;68276;49.326;8.690;2024-02-26T01:39:11;4.60;;;1.10;;
78887;SDS011;68276;49.326;8.690;2024-02-26T01:41:37;4.53;;;1.17;;
78887;SDS011;68276;49.326;8.690;2024-02-26T01:44:03;2.72;;;1.02;;
78887;SDS011;68276;49.326;8.690;2024-02-26T01:46:29;4.78;;;0.90;;
78887;SDS011;68276;49.326;8.690;2024-02-26T01:48:56;3.35;;;0.95;;
78887;SDS011;68276;49.326;8.690;2024-02-26T01:51:23;5.18;;;1.05;;
78887;SDS011;68276;49.326;8.690;2024-02-26T01:53:48;3.78;;;1.02;;
78887;SDS011;68276;49.326;8.690;2024-02-26T01:56:14;4.25;;;1.13;;
78887;SDS011;68276;49.326;8.690;2024-02-26T01:58:40;2.92;;;1.13;;
78887;SDS011;68276;49.326;8.690;2024-02-26T02:01:06;5.35;;;1.38;;
78887;SDS011;68276;49.326;8.690;2024-02-26T02:03:32;2.80;;;1.00;;
78887;SDS011;68276;49.326;8.690;2024-02-26T02:05:58;4.93;;;1.45;;
78887;SDS011;68276;49.326;8.690;2024-02-26T02:08:24;3.33;;;1.13;;
78887;SDS011;68276;49.326;8.690;2024-02-26T02:10:50;3.38;;;1.20;;
78887;SDS011;68276;49.326;8.690;2024-02-26T02:13:15;4.50;;;1.15;;
78887;SDS011;68276;49.326;8.690;2024-02-26T02:15:41;3.83;;;1.10;;
78887;SDS011;68276;49.326;8.690;2024-02-26T02:18:06;2.92;;;1.02;;
78887;SDS011;68276;49.326;8.690;2024-02-26T02:20:32;4.68;;;1.38;;
78887;SDS011;68276;49.326;8.690;2024-02-26T02:22:58;2.78;;;1.17;;
78887;SDS011;68276;49.326;8.690;2024-02-26T02:25:24;3.78;;;1.20;;
78887;SDS011;68276;49.326;8.690;2024-02-26T02:27:50;2.67;;;1.00;;
78887;SDS011;68276;49.326;8.690;2024-02-26T02:30:16;3.00;;;0.93;;
78887;SDS011;68276;49.326;8.690;2024-02-26T02:32:42;4.05;;;1.15;;
78887;SDS011;68276;49.326;8.690;2024-02-26T02:35:08;3.70;;;1.00;;
78887;SDS011;68276;49.326;8.690;2024-02-26T02:37:34;4.25;;;1.48;;
78887;SDS011;68276;49.326;8.690;2024-02-26T02:39:59;3.53;;;1.00;;
78887;SDS011;68276;49.326;8.690;2024-02-26T02:42:25;3.00;;;1.03;;
78887;SDS011;68276;49.326;8.690;2024-02-26T02:44:51;3.53;;;1.20;;
78887;SDS011;68276;49.326;8.690;2024-02-26T02:47:16;3.10;;;1.10;;
78887;SDS011;68276;49.326;8.690;2024-02-26T02:49:41;3.97;;;1.00;;
78887;SDS011;68276;49.326;8.690;2024-02-26T02:52:07;3.73;;;1.00;;
78887;SDS011;68276;49.326;8.690;2024-02-26T02:54:32;3.33;;;1.00;;
78887;SDS011;68276;49.326;8.690;2024-02-26T02:56:58;3.43;;;1.00;;
78887;SDS011;68276;49.326;8.690;2024-02-26T02:59:23;3.42;;;0.80;;
78887;SDS011;68276;49.326;8.690;2024-02-26T03:01:48;3.38;;;0.90;;
78887;SDS011;68276;49.326;8.690;2024-02-26T03:04:14;3.33;;;1.10;;
78887;SDS011;68276;49.326;8.690;2024-02-26T03:06:39;2.80;;;1.13;;
78887;SDS011;68276;49.326;8.690;2024-02-26T03:09:05;3.33;;;1.10;;
78887;SDS011;68276;49.326;8.690;2024-02-26T03:11:30;3.85;;;1.10;;
78887;SDS011;68276;49.326;8.690;2024-02-26T03:13:56;2.53;;;0.80;;
78887;SDS011;68276;49.326;8.690;2024-02-26T03:16:21;1.88;;;0.80;;
78887;SDS011;68276;49.326;8.690;2024-02-26T03:18:47;4.28;;;1.20;;
78887;SDS011;68276;49.326;8.690;2024-02-26T03:21:12;2.45;;;0.70;;
78887;SDS011;68276;49.326;8.690;2024-02-26T03:23:37;2.63;;;0.90;;
78887;SDS011;68276;49.326;8.690;2024-02-26T03:26:03;3.85;;;1.00;;
78887;SDS011;68276;49.326;8.690;2024-02-26T03:28:29;2.67;;;0.90;;
78887;SDS011;68276;49.326;8.690;2024-02-26T03:30:56;3.22;;;1.10;;
78887;SDS011;68276;49.326;8.690;2024-02-26T03:33:21;3.50;;;0.95;;
78887;SDS011;68276;49.326;8.690;2024-02-26T03:35:46;3.00;;;1.00;;
78887;SDS011;68276;49.326;8.690;2024-02-26T03:38:13;3.63;;;1.00;;
78887;SDS011;68276;49.326;8.690;2024-02-26T03:40:38;2.92;;;0.93;;
78887;SDS011;68276;49.326;8.690;2024-02-26T03:43:04;3.63;;;1.15;;
78887;SDS011;68276;49.326;8.690;2024-02-26T03:45:32;3.92;;;1.00;;
78887;SDS011;68276;49.326;8.690;2024-02-26T03:47:57;3.63;;;1.03;;
78887;SDS011;68276;49.326;8.690;2024-02-26T03:50:22;1.90;;;0.70;;
78887;SDS011;68276;49.326;8.690;2024-02-26T03:52:48;3.75;;;0.90;;
78887;SDS011;68276;49.326;8.690;2024-02-26T03:55:13;2.00;;;0.80;;
78887;SDS011;68276;49.326;8.690;2024-02-26T03:57:39;2.83;;;0.70;;
78887;SDS011;68276;49.326;8.690;2024-02-26T04:00:05;4.20;;;1.33;;
78887;SDS011;68276;49.326;8.690;2024-02-26T04:02:31;2.80;;;0.80;;
78887;SDS011;68276;49.326;8.690;2024-02-26T04:04:56;2.75;;;0.80;;
78887;SDS011;68276;49.326;8.690;2024-02-26T04:07:22;1.95;;;0.80;;
78887;SDS011;68276;49.326;8.690;2024-02-26T04:09:47;2.80;;;0.90;;
78887;SDS011;68276;49.326;8.690;2024-02-26T04:12:13;1.37;;;0.60;;
78887;SDS011;68276;49.326;8.690;2024-02-26T04:14:38;1.83;;;0.63;;
78887;SDS011;68276;49.326;8.690;2024-02-26T04:17:04;1.92;;;0.70;;
78887;SDS011;68276;49.326;8.690;2024-02-26T04:19:29;2.03;;;0.60;;
78887;SDS011;68276;49.326;8.690;2024-02-26T04:21:54;1.07;;;0.60;;
78887;SDS011;68276;49.326;8.690;2024-02-26T04:24:20;1.23;;;0.63;;
78887;SDS011;68276;49.326;8.690;2024-02-26T04:26:45;1.15;;;0.60;;
78887;SDS011;68276;49.326;8.690;2024-02-26T04:29:11;1.58;;;0.57;;
78887;SDS011;68276;49.326;8.690;2024-02-26T04:31:37;2.33;;;0.88;;
78887;SDS011;68276;49.326;8.690;2024-02-26T04:34:03;2.13;;;0.60;;
78887;SDS011;68276;49.326;8.690;2024-02-26T04:36:28;2.35;;;0.85;;
78887;SDS011;68276;49.326;8.690;2024-02-26T04:38:53;3.40;;;0.82;;
78887;SDS011;68276;49.326;8.690;2024-02-26T04:41:22;3.08;;;0.80;;
78887;SDS011;68276;49.326;8.690;2024-02-26T04:43:47;1.70;;;0.60;;
78887;SDS011;68276;49.326;8.690;2024-02-26T04:46:13;1.20;;;0.60;;
78887;SDS011;68276;49.326;8.690;2024-02-26T04:48:38;1.83;;;0.57;;
78887;SDS011;68276;49.326;8.690;2024-02-26T04:51:04;2.08;;;0.73;;
78887;SDS011;68276;49.326;8.690;2024-02-26T04:53:30;2.90;;;0.77;;
78887;SDS011;68276;49.326;8.690;2024-02-26T04:55:55;2.30;;;0.80;;
78887;SDS011;68276;49.326;8.690;2024-02-26T04:58:21;2.15;;;0.82;;
78887;SDS011;68276;49.326;8.690;2024-02-26T05:00:46;2.13;;;0.70;;
78887;SDS011;68276;49.326;8.690;2024-02-26T05:03:11;1.98;;;0.90;;
78887;SDS011;68276;49.326;8.690;2024-02-26T05:05:38;5.18;;;1.20;;
78887;SDS011;68276;49.326;8.690;2024-02-26T05:08:05;2.58;;;0.70;;
78887;SDS011;68276;49.326;8.690;2024-02-26T05:10:32;3.45;;;0.80;;
78887;SDS011;68276;49.326;8.690;2024-02-26T05:12:58;4.03;;;0.88;;
78887;SDS011;68276;49.326;8.690;2024-02-26T05:15:23;2.58;;;0.73;;
78887;SDS011;68276;49.326;8.690;2024-02-26T05:17:48;4.40;;;0.97;;
78887;SDS011;68276;49.326;8.690;2024-02-26T05:20:14;1.73;;;0.60;;
78887;SDS011;68276;49.326;8.690;2024-02-26T05:22:39;1.77;;;0.60;;
78887;SDS011;68276;49.326;8.690;2024-02-26T05:25:05;2.30;;;0.80;;
78887;SDS011;68276;49.326;8.690;2024-02-26T05:27:30;2.10;;;0.75;;
78887;SDS011;68276;49.326;8.690;2024-02-26T05:29:56;1.98;;;0.73;;
78887;SDS011;68276;49.326;8.690;2024-02-26T05:32:21;2.55;;;0.75;;
78887;SDS011;68276;49.326;8.690;2024-02-26T05:34:47;2.58;;;0.80;;
78887;SDS011;68276;49.326;8.690;2024-02-26T05:37:12;1.70;;;0.60;;
78887;SDS011;68276;49.326;8.690;2024-02-26T05:39:37;2.03;;;0.70;;
78887;SDS011;68276;49.326;8.690;2024-02-26T05:42:04;1.60;;;0.70;;
78887;SDS011;68276;49.326;8.690;2024-02-26T05:44:30;2.05;;;0.80;;
78887;SDS011;68276;49.326;8.690;2024-02-26T05:46:55;2.13;;;0.70;;
78887;SDS011;68276;49.326;8.690;2024-02-26T05:49:21;4.10;;;1.13;;
78887;SDS011;68276;49.326;8.690;2024-02-26T05:51:47;2.78;;;0.88;;
78887;SDS011;68276;49.326;8.690;2024-02-26T05:54:13;3.33;;;0.98;;
78887;SDS011;68276;49.326;8.690;2024-02-26T05:56:39;1.77;;;0.80;;
78887;SDS011;68276;49.326;8.690;2024-02-26T05:59:04;2.58;;;0.80;;
78887;SDS011;68276;49.326;8.690;2024-02-26T06:01:30;3.40;;;0.90;;
78887;SDS011;68276;49.326;8.690;2024-02-26T06:03:55;2.00;;;0.85;;
78887;SDS011;68276;49.326;8.690;2024-02-26T06:06:21;2.35;;;0.93;;
78887;SDS011;68276;49.326;8.690;2024-02-26T06:08:48;1.05;;;0.57;;
78887;SDS011;68276;49.326;8.690;2024-02-26T06:11:14;3.65;;;0.80;;
78887;SDS011;68276;49.326;8.690;2024-02-26T06:13:39;2.63;;;0.95;;
78887;SDS011;68276;49.326;8.690;2024-02-26T06:16:05;2.87;;;1.00;;
78887;SDS011;68276;49.326;8.690;2024-02-26T06:18:30;2.67;;;1.17;;
78887;SDS011;68276;49.326;8.690;2024-02-26T06:20:56;3.03;;;1.08;;
78887;SDS011;68276;49.326;8.690;2024-02-26T06:23:21;2.78;;;0.90;;
78887;SDS011;68276;49.326;8.690;2024-02-26T06:25:48;4.45;;;1.50;;
78887;SDS011;68276;49.326;8.690;2024-02-26T06:28:13;3.20;;;1.25;;
78887;SDS011;68276;49.326;8.690;2024-02-26T06:30:39;2.40;;;0.77;;
78887;SDS011;68276;49.326;8.690;2024-02-26T06:33:04;2.43;;;0.80;;
78887;SDS011;68276;49.326;8.690;2024-02-26T06:35:30;5.97;;;1.20;;
78887;SDS011;68276;49.326;8.690;2024-02-26T06:37:55;2.87;;;1.10;;
78887;SDS011;68276;49.326;8.690;2024-02-26T06:40:21;2.63;;;0.70;;
78887;SDS011;68276;49.326;8.690;2024-02-26T06:42:46;4.65;;;1.23;;
78887;SDS011;68276;49.326;8.690;2024-02-26T06:45:12;5.30;;;1.30;;
78887;SDS011;68276;49.326;8.690;2024-02-26T06:47:38;3.42;;;0.95;;
78887;SDS011;68276;49.326;8.690;2024-02-26T06:50:03;3.03;;;1.00;;
78887;SDS011;68276;49.326;8.690;2024-02-26T06:52:29;4.35;;;1.30;;
78887;SDS011;68276;49.326;8.690;2024-02-26T06:54:54;4.23;;;1.00;;
78887;SDS011;68276;49.326;8.690;2024-02-26T06:57:20;3.70;;;0.93;;
78887;SDS011;68276;49.326;8.690;2024-02-26T06:59:45;3.20;;;1.20;;
78887;SDS011;68276;49.326;8.690;2024-02-26T07:02:12;3.38;;;1.20;;
78887;SDS011;68276;49.326;8.690;2024-02-26T07:07:04;3.43;;;1.20;;
78887;SDS011;68276;49.326;8.690;2024-02-26T07:09:29;2.88;;;1.02;;
78887;SDS011;68276;49.326;8.690;2024-02-26T07:11:55;6.87;;;1.20;;
78887;SDS011;68276;49.326;8.690;2024-02-26T07:14:20;5.77;;;1.50;;
78887;SDS011;68276;49.326;8.690;2024-02-26T07:16:45;8.17;;;3.10;;
78887;SDS011;68276;49.326;8.690;2024-02-26T07:19:11;4.43;;;1.65;;
78887;SDS011;68276;49.326;8.690;2024-02-26T07:21:36;3.83;;;1.23;;
78887;SDS011;68276;49.326;8.690;2024-02-26T07:24:02;5.30;;;1.70;;
78887;SDS011;68276;49.326;8.690;2024-02-26T07:26:27;5.43;;;1.70;;
78887;SDS011;68276;49.326;8.690;2024-02-26T07:28:55;9.07;;;3.08;;
78887;SDS011;68276;49.326;8.690;2024-02-26T07:31:20;5.88;;;1.95;;
78887;SDS011;68276;49.326;8.690;2024-02-26T07:33:45;5.07;;;1.50;;
78887;SDS011;68276;49.326;8.690;2024-02-26T07:36:11;5.60;;;2.13;;
78887;SDS011;68276;49.326;8.690;2024-02-26T07:38:37;6.97;;;2.10;;
78887;SDS011;68276;49.326;8.690;2024-02-26T07:41:02;5.93;;;2.20;;
78887;SDS011;68276;49.326;8.690;2024-02-26T07:43:28;6.07;;;2.00;;
78887;SDS011;68276;49.326;8.690;2024-02-26T07:45:54;3.95;;;1.52;;
78887;SDS011;68276;49.326;8.690;2024-02-26T07:48:19;4.72;;;1.60;;
78887;SDS011;68276;49.326;8.690;2024-02-26T07:50:45;4.50;;;1.60;;
78887;SDS011;68276;49.326;8.690;2024-02-26T07:53:10;4.10;;;1.33;;
78887;SDS011;68276;49.326;8.690;2024-02-26T07:55:36;4.68;;;1.50;;
78887;SDS011;68276;49.326;8.690;2024-02-26T07:58:01;4.18;;;1.38;;
78887;SDS011;68276;49.326;8.690;2024-02-26T08:00:27;4.47;;;1.20;;
78887;SDS011;68276;49.326;8.690;2024-02-26T08:02:52;5.35;;;1.45;;
78887;SDS011;68276;49.326;8.690;2024-02-26T08:05:17;4.40;;;1.20;;
78887;SDS011;68276;49.326;8.690;2024-02-26T08:07:43;4.05;;;1.10;;
78887;SDS011;68276;49.326;8.690;2024-02-26T08:10:08;3.97;;;1.30;;
78887;SDS011;68276;49.326;8.690;2024-02-26T08:12:35;4.97;;;1.50;;
78887;SDS011;68276;49.326;8.690;2024-02-26T08:15:01;5.38;;;1.67;;
78887;SDS011;68276;49.326;8.690;2024-02-26T08:17:27;3.85;;;1.25;;
78887;SDS011;68276;49.326;8.690;2024-02-26T08:19:52;4.72;;;1.42;;
78887;SDS011;68276;49.326;8.690;2024-02-26T08:22:18;5.43;;;1.70;;
78887;SDS011;68276;49.326;8.690;2024-02-26T08:24:43;6.95;;;1.63;;
78887;SDS011;68276;49.326;8.690;2024-02-26T08:27:09;4.47;;;1.30;;
78887;SDS011;68276;49.326;8.690;2024-02-26T08:29:34;4.95;;;1.50;;
78887;SDS011;68276;49.326;8.690;2024-02-26T08:32:00;5.40;;;1.40;;
78887;SDS011;68276;49.326;8.690;2024-02-26T08:34:25;4.43;;;1.50;;
78887;SDS011;68276;49.326;8.690;2024-02-26T08:36:51;4.45;;;1.42;;
78887;SDS011;68276;49.326;8.690;2024-02-26T08:39:16;5.90;;;1.52;;
78887;SDS011;68276;49.326;8.690;2024-02-26T08:41:43;5.25;;;1.70;;
78887;SDS011;68276;49.326;8.690;2024-02-26T08:44:09;4.60;;;1.52;;
78887;SDS011;68276;49.326;8.690;2024-02-26T08:46:35;3.85;;;1.30;;
78887;SDS011;68276;49.326;8.690;2024-02-26T08:49:00;5.60;;;1.42;;
78887;SDS011;68276;49.326;8.690;2024-02-26T08:51:26;4.22;;;1.20;;
78887;SDS011;68276;49.326;8.690;2024-02-26T08:53:51;3.92;;;1.65;;
78887;SDS011;68276;49.326;8.690;2024-02-26T08:56:17;3.90;;;1.35;;
78887;SDS011;68276;49.326;8.690;2024-02-26T08:58:45;6.22;;;2.15;;
78887;SDS011;68276;49.326;8.690;2024-02-26T09:01:16;7.13;;;2.60;;
78887;SDS011;68276;49.326;8.690;2024-02-26T09:03:42;7.15;;;2.30;;
78887;SDS011;68276;49.326;8.690;2024-02-26T09:06:08;6.20;;;2.15;;
78887;SDS011;68276;49.326;8.690;2024-02-26T09:08:33;6.20;;;2.33;;
78887;SDS011;68276;49.326;8.690;2024-02-26T09:11:01;7.13;;;2.00;;
78887;SDS011;68276;49.326;8.690;2024-02-26T09:13:26;7.32;;;2.15;;
78887;SDS011;68276;49.326;8.690;2024-02-26T09:15:51;5.22;;;1.73;;
78887;SDS011;68276;49.326;8.690;2024-02-26T09:18:17;8.45;;;1.75;;
78887;SDS011;68276;49.326;8.690;2024-02-26T09:20:42;5.53;;;1.77;;
78887;SDS011;68276;49.326;8.690;2024-02-26T09:23:08;7.10;;;2.30;;
78887;SDS011;68276;49.326;8.690;2024-02-26T09:25:34;7.78;;;2.92;;
78887;SDS011;68276;49.326;8.690;2024-02-26T09:28:00;5.88;;;2.10;;
78887;SDS011;68276;49.326;8.690;2024-02-26T09:30:26;5.18;;;1.75;;
78887;SDS011;68276;49.326;8.690;2024-02-26T09:32:51;6.05;;;2.10;;
78887;SDS011;68276;49.326;8.690;2024-02-26T09:35:16;6.40;;;1.97;;
78887;SDS011;68276;49.326;8.690;2024-02-26T09:37:42;6.28;;;1.80;;
78887;SDS011;68276;49.326;8.690;2024-02-26T09:40:09;6.82;;;1.95;;
78887;SDS011;68276;49.326;8.690;2024-02-26T09:42:36;5.97;;;1.80;;
78887;SDS011;68276;49.326;8.690;2024-02-26T09:45:07;5.25;;;1.55;;
78887;SDS011;68276;49.326;8.690;2024-02-26T09:47:37;6.15;;;1.67;;
78887;SDS011;68276;49.326;8.690;2024-02-26T09:50:03;6.90;;;2.40;;
78887;SDS011;68276;49.326;8.690;2024-02-26T09:52:34;6.80;;;2.35;;
78887;SDS011;68276;49.326;8.690;2024-02-26T09:55:02;6.78;;;1.98;;
78887;SDS011;68276;49.326;8.690;2024-02-26T09:57:29;6.72;;;2.10;;
78887;SDS011;68276;49.326;8.690;2024-02-26T09:59:55;5.38;;;1.80;;
78887;SDS011;68276;49.326;8.690;2024-02-26T10:02:26;6.20;;;2.13;;
78887;SDS011;68276;49.326;8.690;2024-02-26T10:04:53;5.47;;;1.90;;
78887;SDS011;68276;49.326;8.690;2024-02-26T10:07:21;5.88;;;2.00;;
78887;SDS011;68276;49.326;8.690;2024-02-26T10:09:47;6.38;;;2.15;;
78887;SDS011;68276;49.326;8.690;2024-02-26T10:12:13;5.20;;;1.80;;
78887;SDS011;68276;49.326;8.690;2024-02-26T10:14:42;5.38;;;1.60;;
78887;SDS011;68276;49.326;8.690;2024-02-26T10:17:07;6.18;;;1.77;;
78887;SDS011;68276;49.326;8.690;2024-02-26T10:19:34;5.60;;;1.90;;
78887;SDS011;68276;49.326;8.690;2024-02-26T10:22:00;4.32;;;1.48;;
78887;SDS011;68276;49.326;8.690;2024-02-26T10:24:27;3.83;;;1.25;;
78887;SDS011;68276;49.326;8.690;2024-02-26T10:26:54;4.18;;;1.50;;
78887;SDS011;68276;49.326;8.690;2024-02-26T10:29:20;5.15;;;1.63;;
78887;SDS011;68276;49.326;8.690;2024-02-26T10:31:47;5.45;;;1.20;;
78887;SDS011;68276;49.326;8.690;2024-02-26T10:34:14;6.88;;;1.38;;
78887;SDS011;68276;49.326;8.690;2024-02-26T10:36:40;3.15;;;1.10;;
78887;SDS011;68276;49.326;8.690;2024-02-26T10:39:06;3.90;;;1.48;;
78887;SDS011;68276;49.326;8.690;2024-02-26T10:41:35;4.07;;;1.08;;
78887;SDS011;68276;49.326;8.690;2024-02-26T10:44:00;5.32;;;1.27;;
78887;SDS011;68276;49.326;8.690;2024-02-26T10:46:26;3.63;;;1.13;;
78887;SDS011;68276;49.326;8.690;2024-02-26T10:48:52;4.63;;;1.33;;
78887;SDS011;68276;49.326;8.690;2024-02-26T10:51:28;3.95;;;1.10;;
78887;SDS011;68276;49.326;8.690;2024-02-26T10:53:55;4.25;;;1.50;;
78887;SDS011;68276;49.326;8.690;2024-02-26T10:56:26;3.95;;;1.25;;
78887;SDS011;68276;49.326;8.690;2024-02-26T10:58:58;5.30;;;1.58;;
78887;SDS011;68276;49.326;8.690;2024-02-26T11:01:24;4.80;;;1.35;;
78887;SDS011;68276;49.326;8.690;2024-02-26T11:03:52;5.07;;;1.67;;
78887;SDS011;68276;49.326;8.690;2024-02-26T11:06:21;4.85;;;1.25;;
78887;SDS011;68276;49.326;8.690;2024-02-26T11:08:48;4.40;;;1.30;;
78887;SDS011;68276;49.326;8.690;2024-02-26T11:11:15;3.88;;;1.10;;
78887;SDS011;68276;49.326;8.690;2024-02-26T11:13:44;3.78;;;1.30;;
78887;SDS011;68276;49.326;8.690;2024-02-26T11:16:14;4.22;;;1.30;;
78887;SDS011;68276;49.326;8.690;2024-02-26T11:18:42;6.00;;;1.50;;
78887;SDS011;68276;49.326;8.690;2024-02-26T11:21:12;4.88;;;1.38;;
78887;SDS011;68276;49.326;8.690;2024-02-26T11:23:40;4.00;;;1.30;;
78887;SDS011;68276;49.326;8.690;2024-02-26T11:26:05;5.38;;;1.52;;
78887;SDS011;68276;49.326;8.690;2024-02-26T11:28:32;4.25;;;1.50;;
78887;SDS011;68276;49.326;8.690;2024-02-26T11:30:59;5.47;;;1.60;;
78887;SDS011;68276;49.326;8.690;2024-02-26T11:33:26;4.20;;;1.40;;
78887;SDS011;68276;49.326;8.690;2024-02-26T11:35:53;4.50;;;1.50;;
78887;SDS011;68276;49.326;8.690;2024-02-26T11:40:46;4.55;;;1.30;;
78887;SDS011;68276;49.326;8.690;2024-02-26T11:48:04;3.47;;;1.07;;
78887;SDS011;68276;49.326;8.690;2024-02-26T11:50:51;3.50;;;1.30;;
78887;SDS011;68276;49.326;8.690;2024-02-26T11:58:44;3.15;;;1.10;;
78887;SDS011;68276;49.326;8.690;2024-02-26T12:04:01;1.92;;;0.85;;
78887;SDS011;68276;49.326;8.690;2024-02-26T12:06:29;2.88;;;1.10;;
78887;SDS011;68276;49.326;8.690;2024-02-26T12:08:55;4.38;;;1.10;;
78887;SDS011;68276;49.326;8.690;2024-02-26T12:11:21;4.43;;;1.20;;
78887;SDS011;68276;49.326;8.690;2024-02-26T12:13:47;5.38;;;1.20;;
78887;SDS011;68276;49.326;8.690;2024-02-26T12:16:34;5.80;;;1.50;;
78887;SDS011;68276;49.326;8.690;2024-02-26T12:19:03;4.88;;;1.30;;
78887;SDS011;68276;49.326;8.690;2024-02-26T12:21:31;2.55;;;0.90;;
78887;SDS011;68276;49.326;8.690;2024-02-26T12:24:15;4.28;;;1.20;;
78887;SDS011;68276;49.326;8.690;2024-02-26T12:26:41;4.45;;;1.20;;
78887;SDS011;68276;49.326;8.690;2024-02-26T12:29:07;5.03;;;1.30;;
78887;SDS011;68276;49.326;8.690;2024-02-26T12:31:33;3.30;;;1.15;;
78887;SDS011;68276;49.326;8.690;2024-02-26T12:34:02;3.40;;;0.90;;
78887;SDS011;68276;49.326;8.690;2024-02-26T12:36:28;3.13;;;1.00;;
78887;SDS011;68276;49.326;8.690;2024-02-26T12:38:54;3.25;;;1.00;;
78887;SDS011;68276;49.326;8.690;2024-02-26T12:41:20;3.20;;;1.00;;
78887;SDS011;68276;49.326;8.690;2024-02-26T12:43:46;2.33;;;0.90;;
78887;SDS011;68276;49.326;8.690;2024-02-26T12:46:12;3.95;;;0.90;;
78887;SDS011;68276;49.326;8.690;2024-02-26T12:48:38;3.97;;;0.95;;
78887;SDS011;68276;49.326;8.690;2024-02-26T12:51:04;4.97;;;1.23;;
78887;SDS011;68276;49.326;8.690;2024-02-26T12:53:31;2.58;;;0.70;;
78887;SDS011;68276;49.326;8.690;2024-02-26T12:55:57;2.95;;;1.02;;
78887;SDS011;68276;49.326;8.690;2024-02-26T12:58:23;3.22;;;1.05;;
78887;SDS011;68276;49.326;8.690;2024-02-26T13:00:53;2.97;;;0.95;;
78887;SDS011;68276;49.326;8.690;2024-02-26T13:03:20;2.10;;;0.90;;
78887;SDS011;68276;49.326;8.690;2024-02-26T13:05:47;4.32;;;0.88;;
78887;SDS011;68276;49.326;8.690;2024-02-26T13:08:19;2.63;;;0.93;;
78887;SDS011;68276;49.326;8.690;2024-02-26T13:10:46;3.40;;;0.95;;
78887;SDS011;68276;49.326;8.690;2024-02-26T13:13:15;2.30;;;0.82;;
78887;SDS011;68276;49.326;8.690;2024-02-26T13:15:42;3.75;;;1.05;;
78887;SDS011;68276;49.326;8.690;2024-02-26T13:18:09;1.73;;;0.90;;
78887;SDS011;68276;49.326;8.690;2024-02-26T13:20:35;3.00;;;1.10;;
78887;SDS011;68276;49.326;8.690;2024-02-26T13:23:04;3.17;;;1.08;;
78887;SDS011;68276;49.326;8.690;2024-02-26T13:25:31;1.77;;;0.70;;
78887;SDS011;68276;49.326;8.690;2024-02-26T13:28:14;3.15;;;1.00;;
78887;SDS011;68276;49.326;8.690;2024-02-26T13:30:55;1.77;;;0.70;;
78887;SDS011;68276;49.326;8.690;2024-02-26T13:33:23;2.47;;;0.93;;
78887;SDS011;68276;49.326;8.690;2024-02-26T13:35:49;2.65;;;1.00;;
78887;SDS011;68276;49.326;8.690;2024-02-26T13:38:15;1.83;;;0.80;;
78887;SDS011;68276;49.326;8.690;2024-02-26T13:40:40;2.15;;;0.75;;
78887;SDS011;68276;49.326;8.690;2024-02-26T13:43:06;2.33;;;0.90;;
78887;SDS011;68276;49.326;8.690;2024-02-26T13:45:35;4.47;;;1.02;;
78887;SDS011;68276;49.326;8.690;2024-02-26T13:48:02;2.97;;;0.70;;
78887;SDS011;68276;49.326;8.690;2024-02-26T13:50:28;2.38;;;0.70;;
78887;SDS011;68276;49.326;8.690;2024-02-26T13:52:54;2.65;;;0.70;;
78887;SDS011;68276;49.326;8.690;2024-02-26T13:55:21;3.65;;;0.80;;
78887;SDS011;68276;49.326;8.690;2024-02-26T13:57:48;2.50;;;0.90;;
78887;SDS011;68276;49.326;8.690;2024-02-26T14:00:14;2.47;;;0.90;;
78887;SDS011;68276;49.326;8.690;2024-02-26T14:02:40;2.53;;;0.93;;
78887;SDS011;68276;49.326;8.690;2024-02-26T14:05:05;1.75;;;0.77;;
78887;SDS011;68276;49.326;8.690;2024-02-26T14:07:31;1.95;;;0.80;;
78887;SDS011;68276;49.326;8.690;2024-02-26T14:09:57;2.55;;;0.90;;
78887;SDS011;68276;49.326;8.690;2024-02-26T14:12:23;3.50;;;0.85;;
78887;SDS011;68276;49.326;8.690;2024-02-26T14:14:49;2.17;;;0.80;;
78887;SDS011;68276;49.326;8.690;2024-02-26T14:17:18;2.75;;;0.70;;
78887;SDS011;68276;49.326;8.690;2024-02-26T14:19:43;9.00;;;4.50;;
78887;SDS011;68276;49.326;8.690;2024-02-26T14:22:13;3.53;;;1.00;;
78887;SDS011;68276;49.326;8.690;2024-02-26T14:24:39;2.55;;;0.90;;
78887;SDS011;68276;49.326;8.690;2024-02-26T14:27:05;3.47;;;0.90;;
78887;SDS011;68276;49.326;8.690;2024-02-26T14:29:32;2.63;;;0.88;;
78887;SDS011;68276;49.326;8.690;2024-02-26T14:31:58;2.35;;;0.73;;
78887;SDS011;68276;49.326;8.690;2024-02-26T14:34:23;1.92;;;0.77;;
78887;SDS011;68276;49.326;8.690;2024-02-26T14:36:49;2.40;;;0.68;;
78887;SDS011;68276;49.326;8.690;2024-02-26T14:39:14;1.63;;;0.63;;
78887;SDS011;68276;49.326;8.690;2024-02-26T14:41:40;1.73;;;0.40;;
78887;SDS011;68276;49.326;8.690;2024-02-26T14:44:05;1.58;;;0.70;;
78887;SDS011;68276;49.326;8.690;2024-02-26T14:46:31;0.75;;;0.40;;
78887;SDS011;68276;49.326;8.690;2024-02-26T14:48:56;2.05;;;0.60;;
78887;SDS011;68276;49.326;8.690;2024-02-26T14:51:23;1.83;;;0.70;;
78887;SDS011;68276;49.326;8.690;2024-02-26T14:53:48;2.92;;;0.88;;
78887;SDS011;68276;49.326;8.690;2024-02-26T14:56:13;2.00;;;0.70;;
78887;SDS011;68276;49.326;8.690;2024-02-26T14:58:39;1.67;;;0.80;;
78887;SDS011;68276;49.326;8.690;2024-02-26T15:01:05;2.55;;;0.90;;
78887;SDS011;68276;49.326;8.690;2024-02-26T15:05:56;2.30;;;0.83;;